LiveATC.Net - Listen to live air traffic control over the Internet!


ICAO: 17FL  IATA: 17F   Airport: Jumbolair-Greystone Airport
City: Ocala   State/Province: Florida
Country: United States   Continent: North America
KOCF METAR Weather: KOCF 302150Z 18010KT 10SM SCT065 31/17 A2992
17FL Flight Activity (FlightAware)
17FL Airport Info   (AirNav) (iFlightPlanner)
17FL VFR Sectional Chart   (iFlightPlanner) 
17FL IFR Low Chart   (iFlightPlanner) 
17FL CTAF
Feed Status: UP   Listeners: 0
Listen right in your browser - requires Flash (in browser, requires Flash)
Click here to listen with your own player (launches your MP3 player)
17FL CTAF Audio Archives
FacilityFrequency
Jumbolair-Greystone 17FL CTAF/UNICOM122.700

Sponsored by: University Air Center

NOTICE

Unauthorized use prohibited. See LiveATC.net Terms of Service


Find LiveATC Audio Streams


Airport/ARTCC Code

Frequency
(e.g., 124.400, 128.75)
Site-wide search

Browse LiveATC Feeds
LiveATC Coverage Map
Top 50 LiveATC Feeds
Bad Weather Areas

LiveATC FAQ
Offer a LiveATC Feed
Contact LiveATC.net
Press Inquiries

LiveATC on iPhone
LiveATC on Android

Windows Phone
Windows 8/10

LiveATC Mobile
(Mobile browser)

ATC Audio Archives
Interesting Recordings

LiveATC Forums


Home Page
About LiveATC.net
Make a Donation
LiveATC Store

Terms of Use
Privacy Policy

Canadian Air Freqs

AIRMETs/SIGMETs

FAA Airport Status
Nat'l Airspace Status
Arrival Demand Charts


Server Software By:
Icecast.org
Liquidsoap